Time;durP1;ratioP1;P1;durP2;ratioP2;P2;SDS_P1;SDS_P2;PMS_P1;PMS_P2;Temp;Humidity;BMP_temperature;BMP_pressure;BME280_temperature;BME280_humidity;BME280_pressure;Samples;Min_cycle;Max_cycle;Signal;HPM_P1;HPM_P2
2020/12/21 00:02:27;;;;;;;;;;;;;;;8.11;100.00;101414.69;5075847;28;19925;-72
2020/12/21 00:04:54;;;;;;;;;;;;;;;8.12;100.00;101424.44;5078619;28;20377;-72
2020/12/21 00:07:21;;;;;;;;;;;;;;;8.11;100.00;101425.38;5079303;28;19948;-72
2020/12/21 00:09:48;;;;;;;;;;;;;;;8.10;100.00;101428.94;5073800;28;19946;-73
2020/12/21 00:12:15;;;;;;;;;;;;;;;8.11;100.00;101422.69;5071411;28;19925;-73
2020/12/21 00:14:42;;;;;;;;;;;;;;;8.10;100.00;101428.94;5088973;28;20023;-72
2020/12/21 00:17:09;;;;;;;;;;;;;;;8.12;100.00;101426.22;5075555;28;19955;-72
2020/12/21 00:19:37;;;;;;;;;;;;;;;8.13;100.00;101426.16;5073520;28;20332;-71
2020/12/21 00:22:04;;;;;;;;;;;;;;;8.14;100.00;101433.25;5073980;28;19992;-72
2020/12/21 00:24:31;;;;;;;;;;;;;;;8.12;100.00;101432.44;5074031;28;19928;-72
2020/12/21 00:26:58;;;;;;;;;;;;;;;8.12;100.00;101435.09;5056879;28;19971;-73
2020/12/21 00:29:26;;;;;;;;;;;;;;;8.11;100.00;101438.69;5077005;28;19938;-72
2020/12/21 00:31:53;;;;;;;;;;;;;;;8.11;100.00;101438.69;5077483;28;20400;-71
2020/12/21 00:34:20;;;;;;;;;;;;;;;8.10;100.00;101434.25;5070940;28;19925;-72
2020/12/21 00:36:53;;;;;;;;;;;;;;;8.11;100.00;101437.78;5080263;28;19931;-71
2020/12/21 00:39:20;;;;;;;;;;;;;;;8.10;100.00;101431.59;5071203;28;19933;-70
2020/12/21 00:41:48;;;;;;;;;;;;;;;8.10;100.00;101425.38;5078490;28;19952;-70
2020/12/21 00:44:15;;;;;;;;;;;;;;;8.10;100.00;101431.59;5074568;28;20916;-70
2020/12/21 00:46:43;;;;;;;;;;;;;;;8.09;100.00;101427.19;5076599;28;19932;-70
2020/12/21 00:49:10;;;;;;;;;;;;;;;8.11;100.00;101427.13;5076774;28;19956;-70
2020/12/21 00:51:37;;;;;;;;;;;;;;;8.09;100.00;101420.97;5074285;28;19951;-70
2020/12/21 00:54:05;;;;;;;;;;;;;;;8.11;100.00;101421.78;5084311;28;20314;-70
2020/12/21 00:56:33;;;;;;;;;;;;;;;8.10;100.00;101420.94;5078251;28;19959;-70
2020/12/21 00:59:01;;;;;;;;;;;;;;;8.10;100.00;101422.72;5066811;28;19991;-70
2020/12/21 01:01:29;;;;;;;;;;;;;;;8.11;100.00;101424.47;5063708;28;19924;-70
2020/12/21 01:03:59;;;;;;;;;;;;;;;8.10;100.00;101415.59;5078846;28;19928;-70
2020/12/21 01:06:27;;;;;;;;;;;;;;;8.10;100.00;101415.59;5077046;28;20339;-70
2020/12/21 01:08:55;;;;;;;;;;;;;;;8.10;100.00;101426.25;5077203;28;19932;-70
2020/12/21 01:11:22;;;;;;;;;;;;;;;8.10;100.00;101420.06;5082744;28;19963;-70
2020/12/21 01:13:49;;;;;;;;;;;;;;;8.11;100.00;101421.78;5081173;28;19936;-70
2020/12/21 01:16:21;;;;;;;;;;;;;;;8.10;100.00;101426.25;5078990;28;19932;-70
2020/12/21 01:18:48;;;;;;;;;;;;;;;8.10;100.00;101420.94;5078399;28;19932;-70
2020/12/21 01:21:24;;;;;;;;;;;;;;;8.10;100.00;101406.72;5072791;28;19924;-70
2020/12/21 01:23:52;;;;;;;;;;;;;;;8.09;100.00;101408.50;5080732;28;19929;-70
2020/12/21 01:26:19;;;;;;;;;;;;;;;8.09;100.00;101405.84;5077990;28;19925;-70
2020/12/21 01:28:48;;;;;;;;;;;;;;;8.10;100.00;101404.91;5083742;28;19928;-70
2020/12/21 01:31:15;;;;;;;;;;;;;;;8.10;100.00;101393.38;5076369;28;19933;-70
2020/12/21 01:33:43;;;;;;;;;;;;;;;8.11;100.00;101405.78;5073755;28;20503;-70
2020/12/21 01:36:10;;;;;;;;;;;;;;;8.10;100.00;101409.38;5077619;28;19925;-70
2020/12/21 01:38:38;;;;;;;;;;;;;;;8.10;100.00;101414.72;5079645;28;19936;-70
2020/12/21 01:41:05;;;;;;;;;;;;;;;8.10;100.00;101412.06;5082013;28;19924;-70
2020/12/21 01:43:32;;;;;;;;;;;;;;;8.10;100.00;101406.72;5079578;28;19960;-69
2020/12/21 01:46:06;;;;;;;;;;;;;;;8.09;100.00;101405.84;5069116;28;19951;-70
2020/12/21 01:48:33;;;;;;;;;;;;;;;8.08;100.00;101401.44;5070533;28;20590;-70
2020/12/21 01:51:00;;;;;;;;;;;;;;;8.10;100.00;101412.06;5076359;28;19924;-70
2020/12/21 01:53:28;;;;;;;;;;;;;;;8.09;100.00;101408.50;5082118;28;19932;-70
2020/12/21 01:55:56;;;;;;;;;;;;;;;8.10;100.00;101406.72;5082365;28;19948;-70
2020/12/21 01:58:24;;;;;;;;;;;;;;;8.10;100.00;101404.06;5094183;28;20499;-70
2020/12/21 02:00:51;;;;;;;;;;;;;;;8.10;100.00;101404.06;5080344;28;19928;-70
2020/12/21 02:03:18;;;;;;;;;;;;;;;8.10;100.00;101399.59;5075046;28;19931;-70
2020/12/21 02:05:45;;;;;;;;;;;;;;;8.10;100.00;101404.91;5077123;28;19924;-70
2020/12/21 02:08:12;;;;;;;;;;;;;;;8.10;100.00;101404.91;5063747;28;19951;-70
2020/12/21 02:10:39;;;;;;;;;;;;;;;8.11;100.00;101406.69;5082272;28;19932;-70
2020/12/21 02:13:06;;;;;;;;;;;;;;;8.11;100.00;101405.78;5078442;28;20430;-70
2020/12/21 02:15:33;;;;;;;;;;;;;;;8.11;100.00;101414.69;5079416;28;19948;-70
2020/12/21 02:17:59;;;;;;;;;;;;;;;8.11;100.00;101408.44;5075684;28;19929;-70
2020/12/21 02:20:29;;;;;;;;;;;;;;;8.10;100.00;101407.59;5078549;28;19924;-70
2020/12/21 02:22:56;;;;;;;;;;;;;;;8.12;100.00;101413.75;5075879;28;19959;-70
2020/12/21 02:25:23;;;;;;;;;;;;;;;8.11;100.00;101400.44;5081736;28;19928;-70
2020/12/21 02:27:50;;;;;;;;;;;;;;;8.10;100.00;101404.91;5081946;28;19959;-72
2020/12/21 02:30:17;;;;;;;;;;;;;;;8.11;100.00;101405.78;5077187;28;19932;-72
2020/12/21 02:32:43;;;;;;;;;;;;;;;8.11;100.00;101406.69;5074690;28;19924;-73
2020/12/21 02:35:10;;;;;;;;;;;;;;;8.11;100.00;101412.03;5080347;28;19929;-73
2020/12/21 02:37:38;;;;;;;;;;;;;;;8.11;100.00;101406.69;5077692;28;19930;-72
2020/12/21 02:40:05;;;;;;;;;;;;;;;8.11;100.00;101401.34;5079565;28;19925;-72
2020/12/21 02:42:32;;;;;;;;;;;;;;;8.11;100.00;101401.34;5079949;28;19924;-72
2020/12/21 02:44:59;;;;;;;;;;;;;;;8.11;100.00;101398.69;5076605;28;19925;-73
2020/12/21 02:47:26;;;;;;;;;;;;;;;8.11;100.00;101403.13;5075073;28;19938;-72
2020/12/21 02:49:53;;;;;;;;;;;;;;;8.11;100.00;101403.13;5079925;28;19944;-72
2020/12/21 02:52:20;;;;;;;;;;;;;;;8.11;100.00;101401.34;5076916;28;19924;-72
2020/12/21 02:54:48;;;;;;;;;;;;;;;8.11;100.00;101396.03;5079996;28;20959;-72
2020/12/21 02:57:16;;;;;;;;;;;;;;;8.11;100.00;101400.44;5079283;28;19958;-73
2020/12/21 02:59:43;;;;;;;;;;;;;;;8.11;100.00;101398.69;5074929;28;19951;-73
2020/12/21 03:02:11;;;;;;;;;;;;;;;8.11;100.00;101398.69;5076185;28;19946;-73
2020/12/21 03:04:41;;;;;;;;;;;;;;;8.11;100.00;101403.13;5084205;28;19988;-72
2020/12/21 03:07:08;;;;;;;;;;;;;;;8.11;100.00;101406.69;5081160;28;19928;-73
2020/12/21 03:09:34;;;;;;;;;;;;;;;8.11;100.00;101405.78;5078755;28;19940;-72
2020/12/21 03:12:04;;;;;;;;;;;;;;;8.12;100.00;101405.75;5074263;28;20070;-73
2020/12/21 03:14:31;;;;;;;;;;;;;;;8.11;100.00;101412.03;5074257;28;19947;-72
2020/12/21 03:16:58;;;;;;;;;;;;;;;8.10;100.00;101410.25;5078406;28;19932;-71
2020/12/21 03:19:25;;;;;;;;;;;;;;;8.10;100.00;101399.59;5074941;28;19986;-73
2020/12/21 03:21:52;;;;;;;;;;;;;;;8.11;100.00;101392.44;5080269;28;20377;-73
2020/12/21 03:24:19;;;;;;;;;;;;;;;8.11;100.00;101389.78;5076228;28;19929;-73
2020/12/21 03:26:46;;;;;;;;;;;;;;;8.11;100.00;101393.34;5077377;28;19935;-73
2020/12/21 03:29:16;;;;;;;;;;;;;;;8.11;100.00;101382.69;5074949;28;19928;-73
2020/12/21 03:31:43;;;;;;;;;;;;;;;8.11;100.00;101385.34;5078213;28;19929;-72
2020/12/21 03:34:13;;;;;;;;;;;;;;;8.11;100.00;101385.34;5079110;28;19928;-73
2020/12/21 03:36:41;;;;;;;;;;;;;;;8.11;100.00;101382.69;5080395;28;19970;-73
2020/12/21 03:39:08;;;;;;;;;;;;;;;8.11;100.00;101377.34;5076999;28;19928;-73
2020/12/21 03:41:35;;;;;;;;;;;;;;;8.12;100.00;101375.56;5072025;28;19988;-73
2020/12/21 03:44:02;;;;;;;;;;;;;;;8.12;100.00;101378.22;5079101;28;19928;-73
2020/12/21 03:46:37;;;;;;;;;;;;;;;8.12;100.00;101381.75;5079353;28;19924;-73
2020/12/21 03:49:04;;;;;;;;;;;;;;;8.12;100.00;101375.56;5078832;28;19932;-73
2020/12/21 03:51:31;;;;;;;;;;;;;;;8.12;100.00;101371.09;5079034;28;19942;-73
2020/12/21 03:53:58;;;;;;;;;;;;;;;8.12;100.00;101370.22;5079161;28;19929;-72
2020/12/21 03:56:25;;;;;;;;;;;;;;;8.12;100.00;101367.53;5079093;28;19933;-73
2020/12/21 03:58:52;;;;;;;;;;;;;;;8.12;100.00;101383.56;5078859;28;19932;-73
2020/12/21 04:01:19;;;;;;;;;;;;;;;8.12;100.00;101387.09;5080171;28;19946;-72
2020/12/21 04:03:47;;;;;;;;;;;;;;;8.12;100.00;101383.56;5074512;28;19992;-73
2020/12/21 04:06:13;;;;;;;;;;;;;;;8.10;100.00;101370.25;5073366;28;19929;-73
2020/12/21 04:08:41;;;;;;;;;;;;;;;8.11;100.00;101382.69;5077420;28;19935;-72
2020/12/21 04:11:08;;;;;;;;;;;;;;;8.11;100.00;101372.00;5075325;28;19958;-73
2020/12/21 04:13:35;;;;;;;;;;;;;;;8.11;100.00;101364.00;5078944;28;19928;-73
2020/12/21 04:16:05;;;;;;;;;;;;;;;8.12;100.00;101360.41;5076090;28;19925;-73
2020/12/21 04:18:32;;;;;;;;;;;;;;;8.11;100.00;101350.69;5074759;28;19959;-73
2020/12/21 04:21:00;;;;;;;;;;;;;;;8.11;100.00;101350.69;5074221;28;19974;-72
2020/12/21 04:23:27;;;;;;;;;;;;;;;8.12;100.00;101354.22;5076853;28;19967;-73
2020/12/21 04:25:54;;;;;;;;;;;;;;;8.12;100.00;101368.41;5077577;28;19929;-73
2020/12/21 04:28:21;;;;;;;;;;;;;;;8.11;100.00;101363.09;5078670;28;20027;-72
2020/12/21 04:30:48;;;;;;;;;;;;;;;8.12;100.00;101364.88;5062214;28;19932;-73
2020/12/21 04:33:15;;;;;;;;;;;;;;;8.11;100.00;101369.34;5078581;28;19929;-73
2020/12/21 04:36:02;;;;;;;;;;;;;;;8.12;100.00;101364.88;5077692;28;19929;-73
2020/12/21 04:38:29;;;;;;;;;;;;;;;8.11;100.00;101380.00;5080074;28;20186;-73
2020/12/21 04:40:56;;;;;;;;;;;;;;;8.12;100.00;101373.75;5082990;28;19932;-72
2020/12/21 04:43:24;;;;;;;;;;;;;;;8.11;100.00;101363.09;5083038;28;19925;-73
2020/12/21 04:45:53;;;;;;;;;;;;;;;8.11;100.00;101358.69;5079755;28;19929;-73
2020/12/21 04:48:21;;;;;;;;;;;;;;;8.12;100.00;101360.41;5075958;28;19954;-73
2020/12/21 04:50:51;;;;;;;;;;;;;;;8.13;100.00;101370.16;5080648;28;20035;-73
2020/12/21 04:53:20;;;;;;;;;;;;;;;8.11;100.00;101369.34;5080115;28;20031;-73
2020/12/21 04:55:47;;;;;;;;;;;;;;;8.12;100.00;101375.56;5082064;28;19982;-73
2020/12/21 04:58:14;;;;;;;;;;;;;;;8.12;100.00;101371.09;5082151;28;19929;-72
2020/12/21 05:00:42;;;;;;;;;;;;;;;8.11;100.00;101373.78;5078452;28;19924;-72
2020/12/21 05:03:09;;;;;;;;;;;;;;;8.11;100.00;101371.09;5076210;28;19928;-72
2020/12/21 05:05:37;;;;;;;;;;;;;;;8.13;100.00;101382.63;5081134;28;19929;-72
2020/12/21 05:08:08;;;;;;;;;;;;;;;8.13;100.00;101377.28;5080063;28;19928;-72
2020/12/21 05:10:35;;;;;;;;;;;;;;;8.11;100.00;101374.69;5082898;28;19939;-72
2020/12/21 05:13:03;;;;;;;;;;;;;;;8.12;100.00;101372.88;5082177;28;19932;-73
2020/12/21 05:15:30;;;;;;;;;;;;;;;8.12;100.00;101373.75;5077831;28;19924;-72
2020/12/21 05:18:04;;;;;;;;;;;;;;;8.11;100.00;101374.69;5076626;28;19943;-73
2020/12/21 05:20:32;;;;;;;;;;;;;;;8.12;100.00;101364.88;5079770;28;20019;-73
2020/12/21 05:22:59;;;;;;;;;;;;;;;8.11;100.00;101360.44;5079759;28;19961;-72
2020/12/21 05:25:29;;;;;;;;;;;;;;;8.11;100.00;101361.34;5087708;28;19950;-72
2020/12/21 05:28:08;;;;;;;;;;;;;;;8.12;100.00;101365.75;5057332;28;19928;-72
2020/12/21 05:30:35;;;;;;;;;;;;;;;8.12;100.00;101368.41;5072670;28;20389;-72
2020/12/21 05:33:03;;;;;;;;;;;;;;;8.11;100.00;101364.00;5078292;28;19932;-72
2020/12/21 05:35:30;;;;;;;;;;;;;;;8.11;100.00;101363.09;5082104;28;19946;-72
2020/12/21 05:37:58;;;;;;;;;;;;;;;8.13;100.00;101358.63;5078755;28;19928;-71
2020/12/21 05:40:27;;;;;;;;;;;;;;;8.13;100.00;101350.63;5092917;28;19948;-72
2020/12/21 05:42:54;;;;;;;;;;;;;;;8.12;100.00;101357.75;5088277;28;19931;-73
2020/12/21 05:45:21;;;;;;;;;;;;;;;8.12;100.00;101355.06;5076005;28;19947;-73
2020/12/21 05:47:49;;;;;;;;;;;;;;;8.12;100.00;101354.22;5077785;28;20343;-73
2020/12/21 05:50:20;;;;;;;;;;;;;;;8.11;100.00;101350.69;5064697;28;20419;-73
2020/12/21 05:52:52;;;;;;;;;;;;;;;8.12;100.00;101367.53;5078737;28;19928;-72
2020/12/21 05:55:21;;;;;;;;;;;;;;;8.11;100.00;101365.78;5083077;28;20396;-72
2020/12/21 05:57:48;;;;;;;;;;;;;;;8.10;100.00;101372.03;5078062;28;19924;-73
2020/12/21 06:00:16;;;;;;;;;;;;;;;8.10;100.00;101380.91;5059656;28;19959;-72
2020/12/21 06:02:43;;;;;;;;;;;;;;;8.09;100.00;101376.50;5077990;28;19932;-72
2020/12/21 06:05:12;;;;;;;;;;;;;;;8.11;100.00;101369.34;5082564;28;19955;-72
2020/12/21 06:07:49;;;;;;;;;;;;;;;8.12;100.00;101380.88;5080265;28;19928;-72
2020/12/21 06:10:16;;;;;;;;;;;;;;;8.12;100.00;101380.88;5078951;28;19992;-73
2020/12/21 06:12:46;;;;;;;;;;;;;;;8.12;100.00;101378.22;5051808;28;19931;-73
2020/12/21 06:15:14;;;;;;;;;;;;;;;8.11;100.00;101381.78;5079619;28;19932;-73
2020/12/21 06:17:42;;;;;;;;;;;;;;;8.11;100.00;101385.34;5059694;28;20448;-74
2020/12/21 06:20:20;;;;;;;;;;;;;;;8.11;100.00;101379.13;5077385;28;20504;-75
2020/12/21 06:22:47;;;;;;;;;;;;;;;8.11;100.00;101379.13;5074545;28;20244;-75
2020/12/21 06:25:20;;;;;;;;;;;;;;;8.10;100.00;101375.56;5075706;28;19932;-75
2020/12/21 06:27:47;;;;;;;;;;;;;;;8.10;100.00;101378.25;5071815;28;19978;-74
2020/12/21 06:30:16;;;;;;;;;;;;;;;8.10;100.00;101378.25;5076997;28;19928;-74
2020/12/21 06:32:45;;;;;;;;;;;;;;;8.10;100.00;101377.38;5074994;28;20334;-75
2020/12/21 06:35:17;;;;;;;;;;;;;;;8.10;100.00;101370.25;5079099;28;19992;-74
2020/12/21 06:37:57;;;;;;;;;;;;;;;8.09;100.00;101379.19;5078032;28;19951;-75
2020/12/21 06:40:29;;;;;;;;;;;;;;;8.09;100.00;101376.50;5074332;28;19933;-75
2020/12/21 06:43:07;;;;;;;;;;;;;;;8.09;100.00;101371.19;5087955;28;19924;-74
2020/12/21 06:45:34;;;;;;;;;;;;;;;8.09;100.00;101376.50;5077679;28;20040;-74
2020/12/21 06:48:02;;;;;;;;;;;;;;;8.09;100.00;101376.50;5075994;28;19939;-74
2020/12/21 06:50:29;;;;;;;;;;;;;;;8.10;100.00;101372.03;5049390;28;20008;-73
2020/12/21 06:52:56;;;;;;;;;;;;;;;8.10;100.00;101372.91;5071743;28;19939;-74
2020/12/21 06:55:32;;;;;;;;;;;;;;;8.09;100.00;101381.84;5067385;28;19949;-74
2020/12/21 06:57:59;;;;;;;;;;;;;;;8.08;100.00;101377.44;5075480;28;19928;-73
2020/12/21 07:00:26;;;;;;;;;;;;;;;8.09;100.00;101379.19;5079529;28;19960;-73
2020/12/21 07:02:54;;;;;;;;;;;;;;;8.08;100.00;101377.44;5074953;28;19928;-74
2020/12/21 07:05:21;;;;;;;;;;;;;;;8.10;100.00;101385.38;5061932;28;19925;-72
2020/12/21 07:07:57;;;;;;;;;;;;;;;8.08;100.00;101396.09;5070255;28;19959;-74
2020/12/21 07:10:24;;;;;;;;;;;;;;;8.09;100.00;101395.19;5071872;28;20021;-74
2020/12/21 07:12:51;;;;;;;;;;;;;;;8.08;100.00;101406.78;5076081;28;19935;-75
2020/12/21 07:15:19;;;;;;;;;;;;;;;8.09;100.00;101402.31;5088432;28;19979;-73
2020/12/21 07:17:46;;;;;;;;;;;;;;;8.09;100.00;101402.31;5074800;28;19931;-73
2020/12/21 07:20:13;;;;;;;;;;;;;;;8.08;100.00;101403.25;5077982;28;19955;-74
2020/12/21 07:22:42;;;;;;;;;;;;;;;8.06;100.00;101399.72;5069293;28;19936;-74
2020/12/21 07:25:10;;;;;;;;;;;;;;;8.06;100.00;101413.94;5057084;28;20290;-74
2020/12/21 07:27:38;;;;;;;;;;;;;;;8.06;100.00;101419.28;5077195;28;19929;-74
2020/12/21 07:30:09;;;;;;;;;;;;;;;8.06;100.00;101419.28;5062299;28;19925;-73
2020/12/21 07:32:36;;;;;;;;;;;;;;;8.06;100.00;101419.28;5075721;28;19928;-74
2020/12/21 07:35:05;;;;;;;;;;;;;;;8.06;100.00;101415.72;5076778;28;19951;-73
2020/12/21 07:37:32;;;;;;;;;;;;;;;8.06;100.00;101405.94;5072489;28;20654;-73
2020/12/21 07:39:59;;;;;;;;;;;;;;;8.06;100.00;101400.59;5077796;28;19992;-76
2020/12/21 07:42:29;;;;;;;;;;;;;;;8.06;100.00;101413.94;5073334;28;19928;-76
2020/12/21 07:44:58;;;;;;;;;;;;;;;8.07;100.00;101407.66;5079281;28;19971;-76
2020/12/21 07:47:28;;;;;;;;;;;;;;;8.07;100.00;101406.81;5077722;28;19925;-77
2020/12/21 07:49:55;;;;;;;;;;;;;;;8.07;100.00;101414.81;5072576;28;19929;-77
2020/12/21 07:52:23;;;;;;;;;;;;;;;8.08;100.00;101411.25;5055260;28;19955;-75
2020/12/21 07:54:50;;;;;;;;;;;;;;;8.08;100.00;101401.44;5076080;28;19939;-76
2020/12/21 07:57:18;;;;;;;;;;;;;;;8.10;100.00;101398.72;5076278;28;19952;-71
2020/12/21 07:59:57;;;;;;;;;;;;;;;8.10;100.00;101394.25;5088742;28;19934;-71
2020/12/21 08:02:25;;;;;;;;;;;;;;;8.13;100.00;101387.97;5071569;28;20008;-70
2020/12/21 08:04:52;;;;;;;;;;;;;;;8.13;100.00;101406.63;5068077;28;19934;-70
2020/12/21 08:07:26;;;;;;;;;;;;;;;8.15;100.00;101399.44;5075621;28;19932;-70
2020/12/21 08:09:53;;;;;;;;;;;;;;;8.15;100.00;101400.34;5082113;28;19932;-70
2020/12/21 08:12:20;;;;;;;;;;;;;;;8.17;100.00;101406.47;5079282;28;19929;-70
2020/12/21 08:14:47;;;;;;;;;;;;;;;8.17;100.00;101403.81;5078354;28;19928;-70
2020/12/21 08:17:16;;;;;;;;;;;;;;;8.17;100.00;101413.63;5077748;28;19928;-70
2020/12/21 08:19:47;;;;;;;;;;;;;;;8.15;100.00;101421.69;5074475;28;19932;-70
2020/12/21 08:22:18;;;;;;;;;;;;;;;8.15;100.00;101421.69;5076027;28;19933;-70
2020/12/21 08:24:46;;;;;;;;;;;;;;;8.14;100.00;101417.25;5078211;28;19935;-70
2020/12/21 08:27:18;;;;;;;;;;;;;;;8.14;100.00;101419.91;5076329;28;19932;-70
2020/12/21 08:29:47;;;;;;;;;;;;;;;8.15;100.00;101421.69;5079293;28;19992;-70
2020/12/21 08:32:14;;;;;;;;;;;;;;;8.15;100.00;101419.00;5073451;28;19929;-70
2020/12/21 08:34:43;;;;;;;;;;;;;;;8.15;100.00;101421.69;5077545;28;20764;-70
2020/12/21 08:37:10;;;;;;;;;;;;;;;8.14;100.00;101414.56;5080409;28;20015;-70
2020/12/21 08:39:37;;;;;;;;;;;;;;;8.14;100.00;101419.03;5078870;28;19928;-70
2020/12/21 08:42:05;;;;;;;;;;;;;;;8.15;100.00;101428.78;5082303;28;19924;-70
2020/12/21 08:44:36;;;;;;;;;;;;;;;8.15;100.00;101418.09;5061563;28;19953;-70
2020/12/21 08:47:03;;;;;;;;;;;;;;;8.17;100.00;101427.81;5074419;28;19932;-70
2020/12/21 08:49:30;;;;;;;;;;;;;;;8.22;100.00;101440.16;5075342;28;19925;-70
2020/12/21 08:52:00;;;;;;;;;;;;;;;8.20;100.00;101437.53;5082776;28;20015;-70
2020/12/21 08:54:27;;;;;;;;;;;;;;;8.25;100.00;101440.06;5078584;28;19934;-71
2020/12/21 08:56:57;;;;;;;;;;;;;;;8.29;100.00;101439.91;5078293;28;19935;-71
2020/12/21 08:59:24;;;;;;;;;;;;;;;8.28;100.00;101451.50;5072083;28;19967;-70
2020/12/21 09:01:51;;;;;;;;;;;;;;;8.34;100.00;101445.13;5072133;28;19925;-71
2020/12/21 09:04:18;;;;;;;;;;;;;;;8.26;100.00;101447.13;5090679;28;19928;-70
2020/12/21 09:06:45;;;;;;;;;;;;;;;8.25;100.00;101453.41;5085005;28;19959;-71
2020/12/21 09:09:12;;;;;;;;;;;;;;;8.30;100.00;101443.47;5081303;28;19931;-70
2020/12/21 09:11:40;;;;;;;;;;;;;;;8.26;100.00;101442.69;5078361;28;19935;-71
2020/12/21 09:14:07;;;;;;;;;;;;;;;8.28;100.00;101440.84;5090337;28;19931;-70
2020/12/21 09:16:34;;;;;;;;;;;;;;;8.29;100.00;101441.72;5074168;28;19999;-71
2020/12/21 09:19:02;;;;;;;;;;;;;;;8.31;100.00;101445.22;5075951;28;19924;-71
2020/12/21 09:21:30;;;;;;;;;;;;;;;8.36;100.00;101432.59;5076723;28;19924;-70
2020/12/21 09:23:58;;;;;;;;;;;;;;;8.35;100.00;101437.06;5078524;28;19955;-72
2020/12/21 09:26:27;;;;;;;;;;;;;;;8.43;100.00;101444.84;5082615;28;20403;-71
2020/12/21 09:28:54;;;;;;;;;;;;;;;8.42;100.00;101432.44;5076473;28;19939;-72
2020/12/21 09:31:22;;;;;;;;;;;;;;;8.45;100.00;101432.34;5077731;28;19929;-71
2020/12/21 09:33:49;;;;;;;;;;;;;;;8.42;100.00;101429.78;5076662;28;19948;-72
2020/12/21 09:36:17;;;;;;;;;;;;;;;8.38;100.00;101431.66;5082123;28;20008;-77
2020/12/21 09:38:44;;;;;;;;;;;;;;;8.41;100.00;101441.38;5080927;28;19933;-77
2020/12/21 09:41:16;;;;;;;;;;;;;;;8.47;100.00;101441.16;5080856;28;19955;-75
2020/12/21 09:43:44;;;;;;;;;;;;;;;8.48;100.00;101439.41;5074424;28;19948;-74
2020/12/21 09:46:11;;;;;;;;;;;;;;;8.52;100.00;101439.25;5080201;28;19969;-73
2020/12/21 09:48:38;;;;;;;;;;;;;;;8.62;100.00;101445.19;5080740;28;20019;-74
2020/12/21 09:51:05;;;;;;;;;;;;;;;8.70;100.00;101447.59;5079632;28;19930;-73
2020/12/21 09:53:32;;;;;;;;;;;;;;;8.75;100.00;101446.50;5079475;28;19963;-75
2020/12/21 09:55:59;;;;;;;;;;;;;;;8.84;100.00;101458.72;5077273;28;19928;-74
2020/12/21 09:58:29;;;;;;;;;;;;;;;8.84;100.00;101450.69;5076695;28;19928;-73
2020/12/21 10:00:57;;;;;;;;;;;;;;;8.86;100.00;101448.84;5062374;28;19936;-75
2020/12/21 10:03:24;;;;;;;;;;;;;;;8.86;100.00;101448.84;5075319;28;19942;-75
2020/12/21 10:05:51;;;;;;;;;;;;;;;8.85;100.00;101449.75;5081895;28;19928;-75
2020/12/21 10:08:18;;;;;;;;;;;;;;;8.86;100.00;101446.16;5074927;28;19928;-74
2020/12/21 10:10:46;;;;;;;;;;;;;;;8.87;100.00;101445.22;5059026;28;19925;-76
2020/12/21 10:13:13;;;;;;;;;;;;;;;9.00;100.00;101443.03;5076184;28;19928;-76
2020/12/21 10:15:40;;;;;;;;;;;;;;;9.01;100.00;101440.31;5080299;28;19925;-75
2020/12/21 10:18:08;;;;;;;;;;;;;;;9.05;100.00;101444.66;5079450;28;19951;-74
2020/12/21 10:20:35;;;;;;;;;;;;;;;9.14;100.00;101430.97;5081728;28;20324;-76
2020/12/21 10:23:02;;;;;;;;;;;;;;;9.24;100.00;101428.84;5082952;28;20016;-75
2020/12/21 10:25:29;;;;;;;;;;;;;;;9.34;100.00;101438.31;5075724;28;19924;-75
2020/12/21 10:27:56;;;;;;;;;;;;;;;9.34;100.00;101419.59;5076876;28;20055;-75
2020/12/21 10:30:26;;;;;;;;;;;;;;;9.30;100.00;101430.41;5061846;28;19932;-84
2020/12/21 10:32:55;;;;;;;;;;;;;;;9.22;100.00;101428.03;5075888;28;19928;-77
2020/12/21 10:35:23;;;;;;;;;;;;;;;9.13;100.00;101436.38;5059866;28;19959;-76
2020/12/21 10:37:50;;;;;;;;;;;;;;;9.11;100.00;101433.72;5076556;28;19928;-76
2020/12/21 10:40:17;;;;;;;;;;;;;;;9.11;100.00;101432.88;5073203;28;20324;-78
2020/12/21 10:42:44;;;;;;;;;;;;;;;9.11;100.00;101435.53;5079829;28;19959;-76
2020/12/21 10:45:11;;;;;;;;;;;;;;;9.06;100.00;101438.38;5079763;28;19928;-78
2020/12/21 10:47:38;;;;;;;;;;;;;;;9.08;100.00;101440.97;5074569;28;19929;-76
2020/12/21 10:50:05;;;;;;;;;;;;;;;9.09;100.00;101440.06;5081309;28;19925;-75
2020/12/21 10:52:34;;;;;;;;;;;;;;;9.12;100.00;101437.28;5076449;28;19996;-74
2020/12/21 10:55:01;;;;;;;;;;;;;;;9.12;100.00;101431.94;5088285;28;19933;-73
2020/12/21 10:57:29;;;;;;;;;;;;;;;9.13;100.00;101442.59;5079380;28;19925;-72
2020/12/21 10:59:55;;;;;;;;;;;;;;;9.11;100.00;101443.56;5061605;28;20382;-73
2020/12/21 11:02:22;;;;;;;;;;;;;;;9.08;100.00;101446.31;5075484;28;19928;-75
2020/12/21 11:04:49;;;;;;;;;;;;;;;9.03;100.00;101449.16;5074799;28;19932;-73
2020/12/21 11:07:20;;;;;;;;;;;;;;;9.03;100.00;101435.81;5073074;28;19951;-73
2020/12/21 11:10:08;;;;;;;;;;;;;;;9.04;100.00;101432.19;5077939;28;20011;-73
2020/12/21 11:12:36;;;;;;;;;;;;;;;9.03;100.00;101434.94;5077904;28;19972;-72
2020/12/21 11:15:03;;;;;;;;;;;;;;;9.00;100.00;101438.56;5088004;28;20120;-73
2020/12/21 11:17:30;;;;;;;;;;;;;;;9.03;100.00;101443.81;5074324;28;20421;-72
2020/12/21 11:19:58;;;;;;;;;;;;;;;9.04;100.00;101431.31;5038126;28;20548;-72
2020/12/21 11:22:24;;;;;;;;;;;;;;;8.97;100.00;101430.66;5043542;28;19932;-72
2020/12/21 11:24:51;;;;;;;;;;;;;;;8.99;100.00;101428.81;5049574;28;19932;-76
2020/12/21 11:27:20;;;;;;;;;;;;;;;8.98;100.00;101432.41;5049538;28;19956;-72
2020/12/21 11:29:47;;;;;;;;;;;;;;;8.97;100.00;101424.44;5050320;28;19933;-72
2020/12/21 11:32:21;;;;;;;;;;;;;;;8.96;100.00;101415.56;5050015;28;19940;-73
2020/12/21 11:34:48;;;;;;;;;;;;;;;8.92;100.00;101413.91;5041651;28;20404;-74
2020/12/21 11:37:15;;;;;;;;;;;;;;;8.94;100.00;101419.19;5031075;28;20612;-71
2020/12/21 11:39:42;;;;;;;;;;;;;;;8.93;100.00;101423.66;5032812;28;20055;-74
2020/12/21 11:42:10;;;;;;;;;;;;;;;8.92;100.00;101421.06;5046386;28;19939;-70
2020/12/21 11:44:38;;;;;;;;;;;;;;;8.89;100.00;101427.38;5048655;28;19928;-74
2020/12/21 11:47:08;;;;;;;;;;;;;;;8.89;100.00;101417.56;5033238;28;19939;-72
2020/12/21 11:49:35;;;;;;;;;;;;;;;8.89;100.00;101422.03;5047238;28;19929;-74
2020/12/21 11:52:03;;;;;;;;;;;;;;;8.89;100.00;101422.03;5047680;28;19976;-73
2020/12/21 11:54:30;;;;;;;;;;;;;;;8.88;100.00;101420.28;5053735;28;20503;-72
2020/12/21 11:56:57;;;;;;;;;;;;;;;8.85;100.00;101420.38;5051636;28;20415;-72
2020/12/21 11:59:24;;;;;;;;;;;;;;;8.86;100.00;101422.13;5049220;28;19933;-74
2020/12/21 12:01:56;;;;;;;;;;;;;;;8.83;100.00;101416.88;5045915;28;20395;-75
2020/12/21 12:04:23;;;;;;;;;;;;;;;8.82;100.00;101423.16;5053709;28;19932;-76
2020/12/21 12:06:52;;;;;;;;;;;;;;;8.78;100.00;101422.38;5057396;28;19940;-74
2020/12/21 12:09:20;;;;;;;;;;;;;;;8.79;100.00;101424.13;5058806;28;20431;-71
2020/12/21 12:11:47;;;;;;;;;;;;;;;8.78;100.00;101426.84;5054643;28;19947;-73
2020/12/21 12:14:13;;;;;;;;;;;;;;;8.78;100.00;101426.84;5056221;28;19941;-72
2020/12/21 12:16:42;;;;;;;;;;;;;;;8.80;100.00;101428.56;5051200;28;19963;-73
2020/12/21 12:19:10;;;;;;;;;;;;;;;8.79;100.00;101431.25;5032945;28;19932;-72
2020/12/21 12:21:36;;;;;;;;;;;;;;;8.79;100.00;101421.44;5051299;28;19933;-73
2020/12/21 12:24:03;;;;;;;;;;;;;;;8.81;100.00;101424.97;5051851;28;19960;-74
2020/12/21 12:26:30;;;;;;;;;;;;;;;8.78;100.00;101419.72;5049071;28;20245;-73
2020/12/21 12:28:58;;;;;;;;;;;;;;;8.92;100.00;101421.06;5049529;28;19928;-76
2020/12/21 12:31:26;;;;;;;;;;;;;;;8.93;100.00;101414.78;5045032;28;20432;-75
2020/12/21 12:33:53;;;;;;;;;;;;;;;8.90;100.00;101424.63;5039317;28;20027;-74
2020/12/21 12:36:21;;;;;;;;;;;;;;;8.89;100.00;101411.34;5045455;28;19929;-73
2020/12/21 12:38:49;;;;;;;;;;;;;;;8.85;100.00;101415.06;5042338;28;20071;-76
2020/12/21 12:41:16;;;;;;;;;;;;;;;8.83;100.00;101417.75;5042119;28;19960;-75